Time;durP1;ratioP1;P1;durP2;ratioP2;P2;SDS_P1;SDS_P2;PMS_P1;PMS_P2;Temp;Humidity;BMP_temperature;BMP_pressure;BME280_temperature;BME280_humidity;BME280_pressure;Samples;Min_cycle;Max_cycle;Signal;HPM_P1;HPM_P2
2022/10/27 00:00:56;;;;;;;2.59;1.00;;;;;;;12.44;89.43;100675.02;454534;116;923063;-77
2022/10/27 00:01:58;;;;;;;1.03;0.97;;;;;;;12.43;89.35;100675.23;454514;116;923080;-76
2022/10/27 00:03:01;;;;;;;1.79;1.10;;;;;;;12.41;89.28;100666.41;454438;116;922953;-76
2022/10/27 00:04:04;;;;;;;1.05;0.99;;;;;;;12.40;89.31;100678.44;454468;116;922555;-77
2022/10/27 00:05:08;;;;;;;1.14;1.03;;;;;;;12.40;89.35;100675.70;455417;115;922592;-76
2022/10/27 00:06:11;;;;;;;1.46;0.93;;;;;;;12.39;89.37;100674.02;455514;116;922503;-77
2022/10/27 00:07:14;;;;;;;0.88;0.79;;;;;;;12.38;89.32;100673.19;455509;116;922884;-77
2022/10/27 00:08:19;;;;;;;1.45;0.90;;;;;;;12.37;89.33;100679.70;455458;116;922919;-76
2022/10/27 00:09:22;;;;;;;0.86;0.84;;;;;;;12.37;89.41;100676.97;455249;116;923042;-76
2022/10/27 00:10:25;;;;;;;1.25;1.04;;;;;;;12.38;89.39;100675.08;455529;116;922566;-76
2022/10/27 00:11:28;;;;;;;1.90;0.91;;;;;;;12.38;89.34;100677.81;455479;116;922887;-77
2022/10/27 00:12:32;;;;;;;1.12;0.79;;;;;;;12.37;89.32;100676.97;455517;116;922389;-77
2022/10/27 00:13:35;;;;;;;1.22;1.14;;;;;;;12.37;89.27;100670.66;455452;116;923494;-76
2022/10/27 00:14:39;;;;;;;1.41;0.84;;;;;;;12.37;89.35;100676.12;455495;116;922533;-78
2022/10/27 00:15:42;;;;;;;0.81;0.74;;;;;;;12.37;89.23;100676.12;455457;116;922505;-77
2022/10/27 00:16:53;;;;;;;0.78;0.78;;;;;;;12.36;89.15;100679.92;449399;116;922585;-77
2022/10/27 00:17:56;;;;;;;1.10;0.98;;;;;;;12.35;89.11;100678.27;448791;118;922563;-77
2022/10/27 00:19:00;;;;;;;0.91;0.88;;;;;;;12.34;89.22;100684.80;448960;118;922905;-77
2022/10/27 00:20:04;;;;;;;1.28;0.95;;;;;;;12.34;89.22;100684.80;448945;118;922911;-76
2022/10/27 00:21:10;;;;;;;1.11;1.01;;;;;;;12.33;89.10;100674.91;448929;118;922545;-77
2022/10/27 00:22:13;;;;;;;1.83;1.73;;;;;;;12.32;89.05;100681.44;448830;118;923072;-76
2022/10/27 00:23:15;;;;;;;1.38;1.10;;;;;;;12.33;89.04;100685.85;449022;118;922492;-76
2022/10/27 00:24:19;;;;;;;1.56;0.90;;;;;;;12.32;89.00;100684.17;448999;118;922550;-76
2022/10/27 00:25:22;;;;;;;1.79;1.26;;;;;;;12.31;89.04;100682.49;449022;118;923020;-77
2022/10/27 00:26:25;;;;;;;1.52;1.04;;;;;;;12.30;88.99;100689.02;449070;118;922543;-77
2022/10/27 00:27:28;;;;;;;1.17;1.09;;;;;;;12.30;88.99;100680.81;449066;118;922516;-77
2022/10/27 00:28:32;;;;;;;0.93;0.88;;;;;;;12.30;88.99;100689.02;449018;118;922870;-75
2022/10/27 00:29:35;;;;;;;0.80;0.80;;;;;;;12.30;88.96;100687.12;448903;117;922959;-76
2022/10/27 00:30:38;;;;;;;0.96;0.70;;;;;;;12.29;89.04;100685.47;453675;117;923139;-77
2022/10/27 00:31:40;;;;;;;0.68;0.65;;;;;;;12.30;88.88;100694.48;454342;116;922543;-76
2022/10/27 00:32:43;;;;;;;0.60;0.60;;;;;;;12.28;88.86;100686.53;464541;114;922556;-78
2022/10/27 00:33:48;;;;;;;0.61;0.61;;;;;;;12.27;88.79;100682.11;463656;114;922522;-76
2022/10/27 00:34:51;;;;;;;0.45;0.45;;;;;;;12.26;88.60;100687.80;456261;116;922650;-77
2022/10/27 00:35:54;;;;;;;0.65;0.60;;;;;;;12.22;88.62;100692.88;456345;116;930178;-76
2022/10/27 00:36:57;;;;;;;1.29;0.69;;;;;;;12.21;88.50;100688.47;456425;116;922576;-78
2022/10/27 00:38:00;;;;;;;0.78;0.76;;;;;;;12.20;88.47;100694.99;456371;116;923046;-79
2022/10/27 00:39:03;;;;;;;0.60;0.60;;;;;;;12.19;88.41;100689.73;456422;115;922810;-77
2022/10/27 00:40:06;;;;;;;0.74;0.60;;;;;;;12.17;88.41;100692.72;456445;116;922550;-77
2022/10/27 00:41:25;;;;;;;0.64;0.53;;;;;;;12.15;88.18;100699.45;456368;116;922532;-76
2022/10/27 00:42:28;;;;;;;0.71;0.58;;;;;;;12.11;88.19;100691.71;456248;116;922847;-77
2022/10/27 00:43:37;;;;;;;0.64;0.52;;;;;;;12.09;88.17;100693.81;456415;116;922446;-77
2022/10/27 00:44:48;;;;;;;0.85;0.54;;;;;;;12.18;88.26;100694.39;482419;110;946883;-76
2022/10/27 00:45:51;;;;;;;0.56;0.54;;;;;;;12.06;88.21;100690.70;474008;112;922617;-76
2022/10/27 00:46:56;;;;;;;0.64;0.56;;;;;;;12.04;88.25;100695.54;473874;112;922946;-76
2022/10/27 00:47:58;;;;;;;1.54;0.72;;;;;;;12.04;88.11;100703.73;473807;112;922510;-79
2022/10/27 00:49:11;;;;;;;1.63;0.62;;;;;;;12.03;88.11;100702.90;470423;112;922833;-77
2022/10/27 00:50:17;;;;;;;0.76;0.72;;;;;;;12.01;88.12;100705.03;463775;114;922394;-75
2022/10/27 00:51:21;;;;;;;0.74;0.67;;;;;;;12.00;88.06;100702.52;461546;115;922441;-76
2022/10/27 00:52:34;;;;;;;0.62;0.62;;;;;;;11.99;88.11;100703.56;461666;115;922827;-76
2022/10/27 00:53:37;;;;;;;0.89;0.57;;;;;;;11.97;88.01;100702.94;461591;115;922719;-76
2022/10/27 00:54:41;;;;;;;0.71;0.59;;;;;;;11.96;87.91;100704.83;461738;115;922802;-76
2022/10/27 00:55:44;;;;;;;0.72;0.72;;;;;;;11.95;87.94;100705.08;461662;115;922564;-75
2022/10/27 00:56:50;;;;;;;1.47;0.65;;;;;;;11.92;87.89;100705.50;461721;114;922659;-76
2022/10/27 00:57:57;;;;;;;0.58;0.57;;;;;;;11.89;88.00;100709.53;461552;115;927047;-75
2022/10/27 00:59:00;;;;;;;0.88;0.88;;;;;;;11.88;88.00;100707.84;461535;115;922562;-76
2022/10/27 01:00:05;;;;;;;2.81;0.89;;;;;;;11.87;88.06;100705.33;461657;114;922925;-75
2022/10/27 01:01:08;;;;;;;0.73;0.73;;;;;;;11.87;88.12;100702.59;461588;115;922760;-75
2022/10/27 01:02:11;;;;;;;0.69;0.60;;;;;;;11.86;88.09;100709.95;461781;114;923010;-76
2022/10/27 01:03:18;;;;;;;0.72;0.59;;;;;;;11.87;88.08;100708.90;461670;115;922537;-77
2022/10/27 01:04:28;;;;;;;1.81;0.62;;;;;;;11.88;88.12;100701.54;461390;115;930331;-75
2022/10/27 01:05:31;;;;;;;0.73;0.63;;;;;;;11.88;88.00;100704.27;461778;114;922850;-76
2022/10/27 01:06:35;;;;;;;1.29;0.57;;;;;;;11.87;87.97;100711.63;461656;115;922383;-75
2022/10/27 01:07:39;;;;;;;0.61;0.61;;;;;;;11.87;87.89;100708.06;461709;115;922678;-76
2022/10/27 01:08:43;;;;;;;1.12;0.52;;;;;;;11.87;87.92;100706.16;461532;115;930141;-75
2022/10/27 01:09:47;;;;;;;1.85;0.79;;;;;;;11.85;87.96;100700.11;461617;114;930107;-76
2022/10/27 01:10:52;;;;;;;0.75;0.67;;;;;;;11.85;87.87;100705.56;461676;115;923412;-77
2022/10/27 01:11:55;;;;;;;0.98;0.58;;;;;;;11.85;87.77;100705.56;461617;115;930227;-76
2022/10/27 01:12:59;;;;;;;0.93;0.64;;;;;;;11.84;87.76;100712.08;461824;115;922988;-76
2022/10/27 01:14:02;;;;;;;1.28;0.68;;;;;;;11.84;87.77;100706.62;461569;115;923399;-75
2022/10/27 01:15:06;;;;;;;1.17;0.56;;;;;;;11.83;87.77;100704.94;461770;115;922442;-76
2022/10/27 01:16:13;;;;;;;0.60;0.60;;;;;;;11.84;87.75;100714.81;460141;114;922588;-76
2022/10/27 01:17:19;;;;;;;0.64;0.55;;;;;;;11.84;87.79;100706.62;456332;116;930083;-77
2022/10/27 01:18:32;;;;;;;0.71;0.68;;;;;;;11.84;87.66;100709.35;456781;116;922490;-77
2022/10/27 01:19:47;;;;;;;0.62;0.62;;;;;;;11.84;87.65;100711.24;456893;116;923261;-75
2022/10/27 01:21:19;;;;;;;0.63;0.63;;;;;;;11.84;87.63;100719.44;456214;116;922544;-76
2022/10/27 01:22:44;;;;;;;1.43;0.98;;;;;;;11.83;87.57;100718.60;456802;116;923089;-75
2022/10/27 01:23:53;;;;;;;0.62;0.62;;;;;;;11.82;87.55;100716.92;456788;116;922731;-76
2022/10/27 01:25:06;;;;;;;2.87;0.77;;;;;;;11.81;87.54;100711.67;446452;118;922712;-77
2022/10/27 01:26:29;;;;;;;1.47;0.71;;;;;;;11.79;87.51;100714.64;453227;116;923141;-78
2022/10/27 01:27:55;;;;;;;0.63;0.60;;;;;;;11.78;87.47;100715.69;456840;116;922571;-76
2022/10/27 01:29:35;;;;;;;1.08;0.51;;;;;;;11.77;87.50;100718.63;464307;114;922962;-76
2022/10/27 01:30:59;;;;;;;0.56;0.56;;;;;;;11.74;87.30;100717.20;459654;115;922581;-77
2022/10/27 01:32:35;;;;;;;0.92;0.72;;;;;;;11.69;87.25;100722.41;462695;114;923095;-77
2022/10/27 01:33:50;;;;;;;0.79;0.79;;;;;;;11.66;87.42;100718.24;456765;115;922843;-76
2022/10/27 01:35:16;;;;;;;1.34;0.73;;;;;;;11.63;87.29;100718.66;470317;112;922930;-77
2022/10/27 01:36:34;;;;;;;0.82;0.80;;;;;;;11.61;87.31;100725.42;470309;112;922487;-76
2022/10/27 01:37:46;;;;;;;1.00;0.86;;;;;;;11.58;87.22;100725.83;470269;112;922533;-76
2022/10/27 01:38:55;;;;;;;0.69;0.69;;;;;;;11.54;87.19;100717.25;470269;112;922614;-79
2022/10/27 01:40:05;;;;;;;1.04;0.84;;;;;;;11.53;87.25;100720.19;459773;115;922678;-77
2022/10/27 01:41:22;;;;;;;1.50;0.91;;;;;;;11.62;87.19;100717.02;477089;110;946804;-77
2022/10/27 01:42:43;;;;;;;0.79;0.77;;;;;;;11.50;87.07;100726.10;465453;113;922561;-75
2022/10/27 01:43:49;;;;;;;0.61;0.61;;;;;;;11.48;87.06;100720.01;460853;113;922657;-77
2022/10/27 01:44:55;;;;;;;1.47;0.74;;;;;;;11.46;87.09;100720.25;457340;116;923126;-76
2022/10/27 01:45:59;;;;;;;0.87;0.69;;;;;;;11.47;87.07;100715.59;457273;116;922480;-75
2022/10/27 01:47:02;;;;;;;0.76;0.71;;;;;;;11.46;86.91;100722.14;457416;115;922524;-76
2022/10/27 01:48:07;;;;;;;0.87;0.70;;;;;;;11.46;86.88;100722.14;457539;115;922556;-75
2022/10/27 01:49:10;;;;;;;0.97;0.77;;;;;;;11.46;86.88;100722.98;457243;114;922851;-77
2022/10/27 01:50:19;;;;;;;0.75;0.70;;;;;;;11.47;86.80;100731.98;458437;114;922862;-78
2022/10/27 01:51:22;;;;;;;0.77;0.59;;;;;;;11.46;86.67;100727.60;462648;114;922535;-77
2022/10/27 01:52:48;;;;;;;0.71;0.69;;;;;;;11.46;86.60;100728.44;462853;114;922950;-77
2022/10/27 01:53:52;;;;;;;0.89;0.69;;;;;;;11.46;86.58;100736.62;462675;114;923043;-77
2022/10/27 01:54:56;;;;;;;1.34;0.64;;;;;;;11.46;86.51;100735.80;462747;114;922935;-77
2022/10/27 01:56:09;;;;;;;0.80;0.79;;;;;;;11.46;86.44;100733.06;462688;114;930225;-77
2022/10/27 01:57:30;;;;;;;0.68;0.66;;;;;;;11.46;86.52;100741.25;461889;114;922581;-76
2022/10/27 01:59:00;;;;;;;0.61;0.60;;;;;;;11.46;86.44;100733.06;461450;114;922516;-77
2022/10/27 02:00:06;;;;;;;0.89;0.83;;;;;;;11.45;86.33;100739.57;462650;114;923086;-77
2022/10/27 02:01:21;;;;;;;0.59;0.54;;;;;;;11.42;86.04;100737.25;462645;114;923020;-76
2022/10/27 02:02:37;;;;;;;1.18;0.86;;;;;;;11.40;86.02;100739.38;462690;114;922615;-77
2022/10/27 02:04:09;;;;;;;1.23;0.72;;;;;;;11.38;86.12;100745.05;462822;114;922459;-77
2022/10/27 02:05:32;;;;;;;0.87;0.83;;;;;;;11.37;86.10;100747.98;462620;114;922484;-75
2022/10/27 02:06:42;;;;;;;0.84;0.68;;;;;;;11.33;86.06;100747.59;462605;114;922962;-77
2022/10/27 02:08:03;;;;;;;0.63;0.63;;;;;;;11.33;86.02;100744.02;450114;117;922758;-77
2022/10/27 02:09:13;;;;;;;0.86;0.82;;;;;;;11.32;85.99;100743.18;453925;114;923296;-78
2022/10/27 02:10:22;;;;;;;0.83;0.72;;;;;;;11.30;85.97;100748.84;462668;114;922802;-76
2022/10/27 02:11:28;;;;;;;1.18;0.92;;;;;;;11.28;85.88;100750.97;462617;114;922540;-77
2022/10/27 02:12:35;;;;;;;0.81;0.80;;;;;;;11.28;86.03;100741.95;462611;114;922477;-76
2022/10/27 02:13:44;;;;;;;0.67;0.67;;;;;;;11.28;85.99;100750.13;462625;114;922638;-76
2022/10/27 02:14:50;;;;;;;1.83;0.83;;;;;;;11.27;85.92;100749.30;462557;114;922509;-76
2022/10/27 02:15:57;;;;;;;1.02;0.80;;;;;;;11.28;85.83;100745.52;462201;114;922717;-77
2022/10/27 02:17:02;;;;;;;1.27;0.85;;;;;;;11.30;85.87;100757.04;457253;116;922936;-77
2022/10/27 02:18:11;;;;;;;0.61;0.61;;;;;;;11.32;85.77;100747.80;457250;116;922552;-76
2022/10/27 02:19:29;;;;;;;1.12;0.80;;;;;;;11.33;85.73;100758.52;457319;116;922570;-77
2022/10/27 02:20:35;;;;;;;1.00;0.89;;;;;;;11.32;85.68;100756.83;456683;115;923009;-76
2022/10/27 02:21:41;;;;;;;0.75;0.75;;;;;;;11.34;85.64;100762.08;457348;116;922881;-76
2022/10/27 02:22:46;;;;;;;0.87;0.87;;;;;;;11.34;85.52;100762.08;457333;116;923388;-76
2022/10/27 02:23:52;;;;;;;1.79;1.54;;;;;;;11.33;85.40;100766.70;457021;114;922434;-77
2022/10/27 02:24:55;;;;;;;0.86;0.86;;;;;;;11.34;85.42;100760.20;457385;115;922532;-76
2022/10/27 02:26:14;;;;;;;0.93;0.93;;;;;;;11.35;85.38;100759.14;457346;115;922664;-78
2022/10/27 02:27:32;;;;;;;0.87;0.87;;;;;;;11.36;85.36;100765.45;457182;116;930189;-76
2022/10/27 02:28:39;;;;;;;1.11;1.04;;;;;;;11.37;85.25;100754.29;457251;114;922748;-76
2022/10/27 02:29:47;;;;;;;0.81;0.81;;;;;;;11.36;85.12;100755.34;456921;116;923071;-77
2022/10/27 02:30:52;;;;;;;0.79;0.79;;;;;;;11.36;85.02;100762.72;454031;116;922983;-77
2022/10/27 02:31:58;;;;;;;1.10;0.95;;;;;;;11.34;84.96;100762.92;455448;116;922509;-78
2022/10/27 02:33:01;;;;;;;0.88;0.88;;;;;;;11.32;84.92;100759.56;457221;116;930170;-77
2022/10/27 02:34:05;;;;;;;0.90;0.90;;;;;;;11.32;84.69;100769.64;453623;114;923030;-77
2022/10/27 02:35:11;;;;;;;2.72;0.84;;;;;;;11.30;84.56;100767.95;449606;117;922482;-76
2022/10/27 02:36:14;;;;;;;1.42;1.32;;;;;;;11.28;84.70;100770.08;449431;117;923117;-77
2022/10/27 02:37:26;;;;;;;1.43;1.00;;;;;;;11.29;84.53;100779.11;449672;117;922670;-77
2022/10/27 02:38:29;;;;;;;0.88;0.87;;;;;;;11.29;84.43;100774.50;449277;117;922611;-76
2022/10/27 02:39:32;;;;;;;1.14;1.10;;;;;;;11.28;84.52;100778.27;449649;116;922994;-78
2022/10/27 02:40:35;;;;;;;1.17;1.07;;;;;;;11.27;84.48;100765.67;449621;117;922617;-77
2022/10/27 02:41:38;;;;;;;1.76;1.09;;;;;;;11.28;84.43;100771.97;449663;117;922978;-76
2022/10/27 02:42:41;;;;;;;0.80;0.80;;;;;;;11.27;84.38;100776.59;449656;117;923004;-77
2022/10/27 02:43:44;;;;;;;0.81;0.81;;;;;;;11.27;84.36;100776.59;442522;118;922915;-77
2022/10/27 02:44:47;;;;;;;0.79;0.79;;;;;;;11.28;84.27;100769.24;432705;120;922788;-77
2022/10/27 02:45:50;;;;;;;1.14;1.04;;;;;;;11.27;84.22;100775.75;449656;118;922961;-76
2022/10/27 02:46:52;;;;;;;0.79;0.79;;;;;;;11.26;84.19;100774.91;449672;117;923008;-76
2022/10/27 02:47:56;;;;;;;0.77;0.77;;;;;;;11.26;84.16;100774.91;449697;117;922493;-76
2022/10/27 02:48:59;;;;;;;1.01;0.92;;;;;;;11.27;84.12;100778.48;449679;116;922946;-78
2022/10/27 02:50:02;;;;;;;0.91;0.91;;;;;;;11.27;84.16;100778.48;449971;116;922463;-77
2022/10/27 02:51:05;;;;;;;1.22;0.78;;;;;;;11.26;83.95;100771.33;457494;115;922615;-78
2022/10/27 02:52:08;;;;;;;0.89;0.89;;;;;;;11.26;83.93;100774.06;457480;115;922479;-75
2022/10/27 02:53:11;;;;;;;0.86;0.84;;;;;;;11.25;83.72;100778.69;457432;115;922470;-75
2022/10/27 02:54:14;;;;;;;0.98;0.66;;;;;;;11.24;83.59;100771.57;457363;114;923062;-75
2022/10/27 02:55:17;;;;;;;0.71;0.70;;;;;;;11.22;83.66;100781.86;457405;116;922488;-76
2022/10/27 02:56:20;;;;;;;0.72;0.72;;;;;;;11.21;83.71;100776.60;457216;116;922868;-75
2022/10/27 02:57:24;;;;;;;0.69;0.69;;;;;;;11.23;83.66;100782.70;457275;115;922740;-76
2022/10/27 02:58:27;;;;;;;0.85;0.85;;;;;;;11.22;83.55;100779.13;457363;116;930170;-75
2022/10/27 02:59:29;;;;;;;1.36;0.86;;;;;;;11.22;83.56;100778.28;457407;114;923083;-76
2022/10/27 03:00:32;;;;;;;1.16;1.00;;;;;;;11.22;83.62;100779.13;457357;116;922967;-76
2022/10/27 03:01:35;;;;;;;1.19;0.85;;;;;;;11.23;83.53;100777.23;457405;116;922637;-77
2022/10/27 03:02:39;;;;;;;1.33;0.79;;;;;;;11.23;83.54;100777.23;457414;116;922546;-76
2022/10/27 03:03:42;;;;;;;0.90;0.90;;;;;;;11.23;83.28;100777.23;457463;116;922765;-76
2022/10/27 03:04:45;;;;;;;1.19;0.85;;;;;;;11.23;83.28;100777.23;457411;116;922551;-75
2022/10/27 03:05:47;;;;;;;0.75;0.75;;;;;;;11.23;83.41;100777.23;457424;116;922492;-76
2022/10/27 03:06:51;;;;;;;2.03;1.15;;;;;;;11.21;83.32;100773.88;457260;116;922870;-76
2022/10/27 03:07:54;;;;;;;1.04;0.80;;;;;;;11.22;83.35;100773.67;457380;116;922631;-76
2022/10/27 03:08:57;;;;;;;0.78;0.78;;;;;;;11.23;83.28;100779.97;457338;114;923611;-75
2022/10/27 03:10:00;;;;;;;0.91;0.76;;;;;;;11.23;83.18;100780.81;457380;116;922456;-75
2022/10/27 03:11:03;;;;;;;0.93;0.91;;;;;;;11.23;83.16;100782.70;457360;116;922495;-75
2022/10/27 03:12:06;;;;;;;1.08;0.78;;;;;;;11.23;83.16;100780.81;457374;115;922571;-76
2022/10/27 03:13:10;;;;;;;1.24;0.93;;;;;;;11.23;83.23;100780.81;457367;116;922846;-75
2022/10/27 03:14:12;;;;;;;1.41;0.99;;;;;;;11.23;83.17;100783.53;457309;114;922733;-76
2022/10/27 03:15:15;;;;;;;1.19;1.07;;;;;;;11.25;83.23;100788.76;457410;116;922515;-76
2022/10/27 03:16:19;;;;;;;1.39;0.74;;;;;;;11.26;83.00;100787.72;457312;116;922664;-77
2022/10/27 03:17:22;;;;;;;0.99;0.74;;;;;;;11.26;82.92;100784.98;457306;116;923247;-77
2022/10/27 03:18:24;;;;;;;1.70;0.86;;;;;;;11.25;82.94;100788.76;457284;116;923002;-77
2022/10/27 03:19:28;;;;;;;0.70;0.70;;;;;;;11.25;82.70;100795.06;457322;116;923132;-75
2022/10/27 03:20:31;;;;;;;0.99;0.64;;;;;;;11.25;82.55;100796.95;457214;116;922628;-76
2022/10/27 03:21:34;;;;;;;0.88;0.80;;;;;;;11.22;82.44;100787.31;457328;116;922461;-77
2022/10/27 03:22:38;;;;;;;0.95;0.87;;;;;;;11.20;82.49;100789.41;457370;115;922737;-77
2022/10/27 03:23:41;;;;;;;0.82;0.82;;;;;;;11.19;82.47;100781.45;457314;114;923155;-75
2022/10/27 03:24:44;;;;;;;0.76;0.75;;;;;;;11.19;82.50;100787.72;457410;115;923005;-75
2022/10/27 03:25:46;;;;;;;1.04;0.90;;;;;;;11.18;82.56;100794.27;457433;115;923117;-74
2022/10/27 03:26:51;;;;;;;2.54;0.78;;;;;;;11.19;82.51;100790.45;457176;116;922524;-75
2022/10/27 03:27:54;;;;;;;0.67;0.67;;;;;;;11.19;82.53;100787.72;457340;115;930237;-75
2022/10/27 03:28:57;;;;;;;1.31;0.90;;;;;;;11.21;82.44;100795.70;457423;114;922491;-76
2022/10/27 03:30:00;;;;;;;1.16;0.94;;;;;;;11.20;82.40;100789.41;458524;115;922573;-75
2022/10/27 03:31:04;;;;;;;1.17;0.75;;;;;;;11.20;82.51;100794.02;460264;115;922919;-75
2022/10/27 03:32:07;;;;;;;1.26;0.78;;;;;;;11.21;82.41;100791.09;458455;115;922628;-76
2022/10/27 03:33:10;;;;;;;0.68;0.68;;;;;;;11.22;82.33;100791.93;458146;115;922675;-76
2022/10/27 03:34:13;;;;;;;2.08;1.09;;;;;;;11.22;82.29;100797.39;452322;114;923128;-76
2022/10/27 03:35:19;;;;;;;1.17;1.01;;;;;;;11.22;82.33;100795.50;449158;117;922575;-77
2022/10/27 03:36:22;;;;;;;1.73;0.92;;;;;;;11.23;82.26;100796.34;449480;118;922466;-75
2022/10/27 03:37:25;;;;;;;1.01;0.92;;;;;;;11.22;82.21;100798.23;449503;117;923152;-76
2022/10/27 03:38:28;;;;;;;1.12;1.00;;;;;;;11.22;82.17;100792.77;449498;118;922933;-77
2022/10/27 03:39:31;;;;;;;1.06;0.95;;;;;;;11.23;82.12;100799.08;449511;116;923118;-76
2022/10/27 03:40:34;;;;;;;0.92;0.91;;;;;;;11.23;82.03;100804.53;449543;118;923000;-76
2022/10/27 03:41:37;;;;;;;0.89;0.89;;;;;;;11.22;82.05;100800.12;449514;117;922632;-77
2022/10/27 03:42:42;;;;;;;0.93;0.91;;;;;;;11.20;81.89;100803.05;449638;117;922553;-77
2022/10/27 03:43:45;;;;;;;0.86;0.84;;;;;;;11.19;81.80;100798.64;449254;116;922486;-76
2022/10/27 03:44:48;;;;;;;1.66;0.88;;;;;;;11.19;81.96;100808.75;449528;117;922698;-75
2022/10/27 03:45:51;;;;;;;2.56;0.95;;;;;;;11.18;81.88;100805.18;449613;117;922562;-76
2022/10/27 03:46:56;;;;;;;0.86;0.86;;;;;;;11.19;81.93;100808.75;449243;118;922570;-76
2022/10/27 03:48:04;;;;;;;1.19;0.94;;;;;;;11.19;81.98;100811.48;449550;118;922738;-76
2022/10/27 03:49:08;;;;;;;1.24;0.72;;;;;;;11.19;81.98;100809.55;449306;116;923467;-75
2022/10/27 03:50:11;;;;;;;0.89;0.89;;;;;;;11.20;81.99;100813.13;450499;116;922487;-77
2022/10/27 03:51:14;;;;;;;1.11;0.86;;;;;;;11.20;81.76;100808.52;455674;116;922549;-77
2022/10/27 03:52:17;;;;;;;0.96;0.94;;;;;;;11.19;81.65;100809.55;455722;116;923011;-78
2022/10/27 03:53:20;;;;;;;0.99;0.93;;;;;;;11.18;81.67;100812.52;455698;116;922912;-77
2022/10/27 03:54:23;;;;;;;2.64;1.11;;;;;;;11.16;81.62;100812.73;455739;116;922505;-77
2022/10/27 03:55:26;;;;;;;1.13;1.07;;;;;;;11.15;81.63;100813.77;455702;116;923047;-78
2022/10/27 03:56:29;;;;;;;0.94;0.94;;;;;;;11.14;81.76;100809.36;455648;116;922599;-77
2022/10/27 03:57:32;;;;;;;1.15;1.04;;;;;;;11.14;81.68;100812.09;455679;116;922864;-76
2022/10/27 03:58:34;;;;;;;1.05;1.00;;;;;;;11.14;81.64;100811.25;455619;116;923052;-77
2022/10/27 03:59:38;;;;;;;0.99;0.99;;;;;;;11.13;81.68;100812.33;455618;116;922579;-76
2022/10/27 04:00:41;;;;;;;0.90;0.88;;;;;;;11.13;81.71;100806.87;455619;116;923092;-76
2022/10/27 04:01:44;;;;;;;3.27;0.93;;;;;;;11.14;81.74;100817.55;455588;116;923035;-77
2022/10/27 04:02:47;;;;;;;0.88;0.82;;;;;;;11.14;81.71;100809.36;455670;116;922950;-75
2022/10/27 04:03:50;;;;;;;1.31;0.94;;;;;;;11.14;81.71;100808.52;455581;116;922583;-76
2022/10/27 04:04:56;;;;;;;0.96;0.91;;;;;;;11.14;81.70;100812.09;455635;116;924830;-76
2022/10/27 04:05:59;;;;;;;0.67;0.67;;;;;;;11.15;81.72;100813.77;455498;116;922669;-76
2022/10/27 04:07:02;;;;;;;1.07;0.81;;;;;;;11.16;81.69;100812.73;455699;116;922529;-76
2022/10/27 04:08:05;;;;;;;0.85;0.84;;;;;;;11.16;81.66;100817.34;455635;116;923596;-77
2022/10/27 04:09:07;;;;;;;1.81;1.05;;;;;;;11.15;81.63;100816.50;455622;116;923010;-75
2022/10/27 04:10:10;;;;;;;0.88;0.79;;;;;;;11.17;81.61;100816.30;455641;116;922932;-76
2022/10/27 04:11:14;;;;;;;1.92;0.96;;;;;;;11.18;81.61;100820.71;455607;116;922513;-77
2022/10/27 04:12:16;;;;;;;0.95;0.75;;;;;;;11.18;81.67;100815.25;455673;116;922961;-78
2022/10/27 04:13:19;;;;;;;2.76;1.14;;;;;;;11.19;81.75;100816.94;455676;116;922570;-77
2022/10/27 04:14:22;;;;;;;0.80;0.80;;;;;;;11.20;81.79;100819.43;455689;116;923099;-76
2022/10/27 04:15:27;;;;;;;0.81;0.81;;;;;;;11.21;81.71;100823.00;455670;116;922640;-76
2022/10/27 04:16:29;;;;;;;2.34;1.25;;;;;;;11.21;81.66;100829.30;456719;116;922561;-76
2022/10/27 04:17:32;;;;;;;0.85;0.81;;;;;;;11.21;81.64;100828.46;457400;116;922576;-76
2022/10/27 04:18:36;;;;;;;1.84;0.98;;;;;;;11.20;81.54;100829.50;457365;114;922618;-78
2022/10/27 04:19:38;;;;;;;0.61;0.61;;;;;;;11.18;81.56;100834.36;457435;115;923046;-77
2022/10/27 04:20:41;;;;;;;1.63;1.01;;;;;;;11.17;81.65;100827.22;457368;115;922571;-76
2022/10/27 04:21:44;;;;;;;0.80;0.80;;;;;;;11.16;81.55;100829.10;457354;115;922478;-76
2022/10/27 04:22:47;;;;;;;1.04;1.02;;;;;;;11.14;81.56;100825.73;457383;115;923038;-75
2022/10/27 04:23:51;;;;;;;1.79;1.01;;;;;;;11.13;81.54;100837.73;457342;114;923460;-76
2022/10/27 04:24:54;;;;;;;1.95;0.92;;;;;;;11.11;81.61;100834.36;457397;116;922510;-76
2022/10/27 04:25:57;;;;;;;1.73;1.20;;;;;;;11.13;81.65;100836.89;457432;115;922877;-75
2022/10/27 04:27:00;;;;;;;1.47;0.99;;;;;;;11.10;81.65;100835.41;457362;115;922580;-77
2022/10/27 04:28:05;;;;;;;1.18;1.04;;;;;;;11.10;81.73;100832.67;457405;115;922508;-75
2022/10/27 04:29:08;;;;;;;2.02;1.24;;;;;;;11.09;81.62;100839.18;457169;114;922756;-75
2022/10/27 04:30:11;;;;;;;1.02;0.98;;;;;;;11.09;81.72;100836.45;459042;115;922995;-76
2022/10/27 04:31:14;;;;;;;1.09;1.06;;;;;;;11.07;81.66;100845.92;460321;115;922540;-75
2022/10/27 04:32:17;;;;;;;1.56;1.46;;;;;;;11.07;81.67;100838.58;457927;115;922905;-77
2022/10/27 04:33:20;;;;;;;1.13;1.04;;;;;;;11.06;81.70;100845.08;457361;116;922453;-77
2022/10/27 04:34:25;;;;;;;1.70;1.11;;;;;;;11.07;81.71;100843.19;449904;114;922547;-76
2022/10/27 04:35:28;;;;;;;0.91;0.91;;;;;;;11.06;81.75;100842.34;449615;117;922485;-76
2022/10/27 04:36:31;;;;;;;1.62;1.21;;;;;;;11.05;81.80;100846.12;449579;117;922523;-76
2022/10/27 04:37:34;;;;;;;1.72;1.22;;;;;;;11.05;81.82;100839.82;449619;117;922621;-77
2022/10/27 04:38:37;;;;;;;1.24;1.14;;;;;;;11.04;81.80;100849.89;449605;117;923059;-77
2022/10/27 04:39:40;;;;;;;1.43;1.33;;;;;;;11.04;81.75;100844.44;449574;117;922588;-76
2022/10/27 04:40:43;;;;;;;1.36;1.26;;;;;;;11.02;81.83;100841.09;449574;117;923552;-77
2022/10/27 04:41:45;;;;;;;1.31;1.21;;;;;;;11.02;81.80;100848.45;449523;117;922804;-76
2022/10/27 04:42:48;;;;;;;1.37;1.27;;;;;;;11.02;81.83;100848.45;449537;118;922936;-76
2022/10/27 04:43:51;;;;;;;2.62;1.59;;;;;;;11.00;81.81;100854.10;449547;117;923050;-76
2022/10/27 04:44:54;;;;;;;2.39;1.37;;;;;;;11.00;81.83;100845.92;449489;118;922547;-77
2022/10/27 04:45:57;;;;;;;1.46;1.36;;;;;;;11.00;81.99;100851.38;449496;117;922501;-77
2022/10/27 04:47:01;;;;;;;3.36;1.32;;;;;;;11.00;82.01;100854.10;449537;117;923157;-76
2022/10/27 04:48:04;;;;;;;1.37;1.26;;;;;;;10.99;82.03;100860.61;449525;117;922606;-77
2022/10/27 04:49:07;;;;;;;1.31;1.21;;;;;;;10.99;81.96;100854.30;449456;116;922621;-76
2022/10/27 04:50:10;;;;;;;1.55;1.45;;;;;;;10.98;82.08;100853.47;450688;116;922542;-76
2022/10/27 04:51:13;;;;;;;1.06;1.06;;;;;;;11.00;82.02;100858.72;457367;116;922600;-76
2022/10/27 04:52:16;;;;;;;1.45;1.34;;;;;;;11.00;82.04;100862.29;457288;116;922985;-75
2022/10/27 04:53:19;;;;;;;1.41;1.19;;;;;;;11.00;82.08;100854.10;457374;116;922484;-76
2022/10/27 04:54:22;;;;;;;3.59;1.20;;;;;;;11.00;82.17;100858.72;457360;114;922547;-76
2022/10/27 04:55:26;;;;;;;1.28;1.19;;;;;;;11.01;82.17;100861.25;457346;116;922452;-76
2022/10/27 04:56:28;;;;;;;1.36;1.24;;;;;;;11.01;82.07;100858.52;457298;115;922479;-76
2022/10/27 04:57:32;;;;;;;1.30;1.20;;;;;;;11.03;82.09;100870.04;457296;116;930270;-77
2022/10/27 04:58:34;;;;;;;1.22;1.20;;;;;;;11.04;82.10;100859.97;457371;114;922542;-76
2022/10/27 04:59:37;;;;;;;1.49;1.39;;;;;;;11.05;82.15;100861.66;457431;116;922871;-77
2022/10/27 05:00:41;;;;;;;1.75;1.34;;;;;;;11.07;82.06;100862.29;457379;116;922635;-76
2022/10/27 05:01:44;;;;;;;1.30;1.14;;;;;;;11.07;82.08;100876.78;457263;116;923047;-77
2022/10/27 05:02:53;;;;;;;1.84;1.36;;;;;;;11.08;81.97;100863.97;457315;116;922617;-75